sensor_id;sensor_type;location;lat;lon;timestamp;P1;durP1;ratioP1;P2;durP2;ratioP2
62863;SDS011;48954;59.950;11.014;2023-05-19T00:02:17;5.20;;;2.10;;
62863;SDS011;48954;59.950;11.014;2023-05-19T00:04:43;6.70;;;2.30;;
62863;SDS011;48954;59.950;11.014;2023-05-19T00:07:10;7.60;;;2.20;;
62863;SDS011;48954;59.950;11.014;2023-05-19T00:09:37;6.10;;;2.70;;
62863;SDS011;48954;59.950;11.014;2023-05-19T00:12:03;5.70;;;2.20;;
62863;SDS011;48954;59.950;11.014;2023-05-19T00:14:30;4.50;;;2.40;;
62863;SDS011;48954;59.950;11.014;2023-05-19T00:16:57;5.80;;;2.30;;
62863;SDS011;48954;59.950;11.014;2023-05-19T00:19:24;8.00;;;2.10;;
62863;SDS011;48954;59.950;11.014;2023-05-19T00:21:50;5.00;;;2.40;;
62863;SDS011;48954;59.950;11.014;2023-05-19T00:24:17;6.80;;;2.30;;
62863;SDS011;48954;59.950;11.014;2023-05-19T00:26:43;9.50;;;3.00;;
62863;SDS011;48954;59.950;11.014;2023-05-19T00:29:10;6.60;;;3.00;;
62863;SDS011;48954;59.950;11.014;2023-05-19T00:31:36;6.10;;;3.10;;
62863;SDS011;48954;59.950;11.014;2023-05-19T00:34:03;8.30;;;2.80;;
62863;SDS011;48954;59.950;11.014;2023-05-19T00:36:29;6.30;;;2.60;;
62863;SDS011;48954;59.950;11.014;2023-05-19T00:38:56;6.40;;;2.80;;
62863;SDS011;48954;59.950;11.014;2023-05-19T00:41:22;6.60;;;2.80;;
62863;SDS011;48954;59.950;11.014;2023-05-19T00:43:49;6.20;;;2.70;;
62863;SDS011;48954;59.950;11.014;2023-05-19T00:46:17;5.50;;;2.30;;
62863;SDS011;48954;59.950;11.014;2023-05-19T00:48:44;4.80;;;2.20;;
62863;SDS011;48954;59.950;11.014;2023-05-19T00:51:11;5.20;;;2.50;;
62863;SDS011;48954;59.950;11.014;2023-05-19T00:53:39;8.50;;;2.40;;
62863;SDS011;48954;59.950;11.014;2023-05-19T00:56:09;10.50;;;2.90;;
62863;SDS011;48954;59.950;11.014;2023-05-19T00:58:35;6.80;;;2.40;;
62863;SDS011;48954;59.950;11.014;2023-05-19T01:01:01;5.10;;;2.40;;
62863;SDS011;48954;59.950;11.014;2023-05-19T01:03:29;3.90;;;1.80;;
62863;SDS011;48954;59.950;11.014;2023-05-19T01:05:57;5.00;;;2.30;;
62863;SDS011;48954;59.950;11.014;2023-05-19T01:08:23;8.00;;;2.60;;
62863;SDS011;48954;59.950;11.014;2023-05-19T01:10:50;8.60;;;3.40;;
62863;SDS011;48954;59.950;11.014;2023-05-19T01:13:16;7.60;;;2.40;;
62863;SDS011;48954;59.950;11.014;2023-05-19T01:15:57;9.00;;;2.60;;
62863;SDS011;48954;59.950;11.014;2023-05-19T01:21:35;5.50;;;2.30;;
62863;SDS011;48954;59.950;11.014;2023-05-19T01:27:13;8.00;;;3.00;;
62863;SDS011;48954;59.950;11.014;2023-05-19T01:32:59;6.10;;;2.80;;
62863;SDS011;48954;59.950;11.014;2023-05-19T01:35:28;6.20;;;2.60;;
62863;SDS011;48954;59.950;11.014;2023-05-19T01:37:56;9.10;;;3.30;;
62863;SDS011;48954;59.950;11.014;2023-05-19T01:40:24;8.40;;;3.20;;
62863;SDS011;48954;59.950;11.014;2023-05-19T01:42:53;12.90;;;2.80;;
62863;SDS011;48954;59.950;11.014;2023-05-19T01:45:21;6.00;;;2.80;;
62863;SDS011;48954;59.950;11.014;2023-05-19T01:47:50;6.80;;;2.90;;
62863;SDS011;48954;59.950;11.014;2023-05-19T01:50:18;8.70;;;3.00;;
62863;SDS011;48954;59.950;11.014;2023-05-19T01:52:45;7.70;;;3.40;;
62863;SDS011;48954;59.950;11.014;2023-05-19T01:55:12;6.60;;;3.00;;
62863;SDS011;48954;59.950;11.014;2023-05-19T02:14:40;9.90;;;3.60;;
62863;SDS011;48954;59.950;11.014;2023-05-19T02:17:14;14.60;;;3.30;;
62863;SDS011;48954;59.950;11.014;2023-05-19T02:19:43;7.70;;;3.20;;
62863;SDS011;48954;59.950;11.014;2023-05-19T02:22:10;8.20;;;3.00;;
62863;SDS011;48954;59.950;11.014;2023-05-19T02:24:37;7.20;;;2.60;;
62863;SDS011;48954;59.950;11.014;2023-05-19T02:27:04;7.90;;;2.90;;
62863;SDS011;48954;59.950;11.014;2023-05-19T02:29:30;8.30;;;3.10;;
62863;SDS011;48954;59.950;11.014;2023-05-19T02:31:57;8.70;;;3.50;;
62863;SDS011;48954;59.950;11.014;2023-05-19T02:34:23;8.20;;;2.60;;
62863;SDS011;48954;59.950;11.014;2023-05-19T02:36:50;9.00;;;3.10;;
62863;SDS011;48954;59.950;11.014;2023-05-19T02:39:16;6.20;;;2.90;;
62863;SDS011;48954;59.950;11.014;2023-05-19T02:41:43;7.90;;;3.40;;
62863;SDS011;48954;59.950;11.014;2023-05-19T02:44:09;7.70;;;3.50;;
62863;SDS011;48954;59.950;11.014;2023-05-19T02:46:38;6.20;;;2.70;;
62863;SDS011;48954;59.950;11.014;2023-05-19T02:49:06;9.60;;;4.00;;
62863;SDS011;48954;59.950;11.014;2023-05-19T02:51:32;6.90;;;3.40;;
62863;SDS011;48954;59.950;11.014;2023-05-19T02:53:58;7.10;;;2.80;;
62863;SDS011;48954;59.950;11.014;2023-05-19T02:56:25;9.10;;;2.80;;
62863;SDS011;48954;59.950;11.014;2023-05-19T02:58:51;6.80;;;3.10;;
62863;SDS011;48954;59.950;11.014;2023-05-19T03:01:18;7.10;;;3.20;;
62863;SDS011;48954;59.950;11.014;2023-05-19T03:03:44;6.70;;;2.90;;
62863;SDS011;48954;59.950;11.014;2023-05-19T03:06:11;8.20;;;3.40;;
62863;SDS011;48954;59.950;11.014;2023-05-19T03:08:38;8.30;;;3.70;;
62863;SDS011;48954;59.950;11.014;2023-05-19T03:11:04;5.90;;;2.60;;
62863;SDS011;48954;59.950;11.014;2023-05-19T03:13:31;7.70;;;3.50;;
62863;SDS011;48954;59.950;11.014;2023-05-19T03:15:58;11.50;;;3.10;;
62863;SDS011;48954;59.950;11.014;2023-05-19T03:18:25;9.80;;;3.20;;
62863;SDS011;48954;59.950;11.014;2023-05-19T03:20:51;12.20;;;3.20;;
62863;SDS011;48954;59.950;11.014;2023-05-19T03:23:21;6.00;;;2.90;;
62863;SDS011;48954;59.950;11.014;2023-05-19T03:25:48;8.30;;;2.80;;
62863;SDS011;48954;59.950;11.014;2023-05-19T03:28:15;7.90;;;3.20;;
62863;SDS011;48954;59.950;11.014;2023-05-19T03:30:41;10.10;;;3.60;;
62863;SDS011;48954;59.950;11.014;2023-05-19T03:33:08;8.40;;;3.20;;
62863;SDS011;48954;59.950;11.014;2023-05-19T03:35:34;7.70;;;3.20;;
62863;SDS011;48954;59.950;11.014;2023-05-19T03:38:00;9.20;;;3.30;;
62863;SDS011;48954;59.950;11.014;2023-05-19T03:40:27;7.50;;;3.00;;
62863;SDS011;48954;59.950;11.014;2023-05-19T03:42:53;9.00;;;4.10;;
62863;SDS011;48954;59.950;11.014;2023-05-19T03:45:20;6.70;;;3.40;;
62863;SDS011;48954;59.950;11.014;2023-05-19T03:47:46;10.80;;;3.40;;
62863;SDS011;48954;59.950;11.014;2023-05-19T03:50:13;7.90;;;3.80;;
62863;SDS011;48954;59.950;11.014;2023-05-19T03:52:39;6.60;;;3.00;;
62863;SDS011;48954;59.950;11.014;2023-05-19T03:55:06;8.80;;;4.00;;
62863;SDS011;48954;59.950;11.014;2023-05-19T03:57:33;11.30;;;4.50;;
62863;SDS011;48954;59.950;11.014;2023-05-19T03:59:59;16.80;;;6.40;;
62863;SDS011;48954;59.950;11.014;2023-05-19T04:02:26;16.50;;;5.50;;
62863;SDS011;48954;59.950;11.014;2023-05-19T04:04:52;10.40;;;4.30;;
62863;SDS011;48954;59.950;11.014;2023-05-19T04:07:19;14.50;;;5.30;;
62863;SDS011;48954;59.950;11.014;2023-05-19T04:09:45;12.60;;;6.50;;
62863;SDS011;48954;59.950;11.014;2023-05-19T04:12:12;11.60;;;5.70;;
62863;SDS011;48954;59.950;11.014;2023-05-19T04:14:38;11.00;;;5.50;;
62863;SDS011;48954;59.950;11.014;2023-05-19T04:17:08;9.30;;;4.20;;
62863;SDS011;48954;59.950;11.014;2023-05-19T04:19:34;15.60;;;5.40;;
62863;SDS011;48954;59.950;11.014;2023-05-19T04:22:01;9.30;;;4.30;;
62863;SDS011;48954;59.950;11.014;2023-05-19T04:24:27;12.60;;;4.20;;
62863;SDS011;48954;59.950;11.014;2023-05-19T04:26:54;11.10;;;5.40;;
62863;SDS011;48954;59.950;11.014;2023-05-19T04:29:20;10.40;;;4.40;;
62863;SDS011;48954;59.950;11.014;2023-05-19T04:31:46;16.80;;;6.20;;
62863;SDS011;48954;59.950;11.014;2023-05-19T04:34:13;12.60;;;5.40;;
62863;SDS011;48954;59.950;11.014;2023-05-19T04:36:40;13.10;;;4.70;;
62863;SDS011;48954;59.950;11.014;2023-05-19T04:39:06;10.00;;;4.30;;
62863;SDS011;48954;59.950;11.014;2023-05-19T04:41:33;9.70;;;4.00;;
62863;SDS011;48954;59.950;11.014;2023-05-19T04:43:59;10.50;;;4.40;;
62863;SDS011;48954;59.950;11.014;2023-05-19T04:46:26;12.40;;;5.20;;
62863;SDS011;48954;59.950;11.014;2023-05-19T04:48:52;9.40;;;4.50;;
62863;SDS011;48954;59.950;11.014;2023-05-19T04:51:19;7.90;;;3.70;;
62863;SDS011;48954;59.950;11.014;2023-05-19T04:53:45;10.10;;;3.60;;
62863;SDS011;48954;59.950;11.014;2023-05-19T04:56:12;10.60;;;4.30;;
62863;SDS011;48954;59.950;11.014;2023-05-19T04:58:38;19.50;;;4.90;;
62863;SDS011;48954;59.950;11.014;2023-05-19T05:01:06;11.30;;;3.70;;
62863;SDS011;48954;59.950;11.014;2023-05-19T05:03:33;15.10;;;4.80;;
62863;SDS011;48954;59.950;11.014;2023-05-19T05:05:59;9.40;;;3.50;;
62863;SDS011;48954;59.950;11.014;2023-05-19T05:08:26;11.10;;;4.10;;
62863;SDS011;48954;59.950;11.014;2023-05-19T05:10:53;12.50;;;4.50;;
62863;SDS011;48954;59.950;11.014;2023-05-19T05:13:20;10.10;;;4.30;;
62863;SDS011;48954;59.950;11.014;2023-05-19T05:15:48;8.20;;;3.90;;
62863;SDS011;48954;59.950;11.014;2023-05-19T05:18:15;10.80;;;4.10;;
62863;SDS011;48954;59.950;11.014;2023-05-19T05:20:42;8.80;;;4.20;;
62863;SDS011;48954;59.950;11.014;2023-05-19T05:23:10;8.20;;;4.00;;
62863;SDS011;48954;59.950;11.014;2023-05-19T05:25:37;5.00;;;2.90;;
62863;SDS011;48954;59.950;11.014;2023-05-19T05:28:04;6.70;;;4.10;;
62863;SDS011;48954;59.950;11.014;2023-05-19T05:30:32;4.90;;;2.50;;
62863;SDS011;48954;59.950;11.014;2023-05-19T05:32:58;4.90;;;2.40;;
62863;SDS011;48954;59.950;11.014;2023-05-19T05:35:25;5.80;;;2.90;;
62863;SDS011;48954;59.950;11.014;2023-05-19T05:37:52;5.00;;;2.90;;
62863;SDS011;48954;59.950;11.014;2023-05-19T05:40:18;6.40;;;3.40;;
62863;SDS011;48954;59.950;11.014;2023-05-19T05:42:45;7.30;;;3.70;;
62863;SDS011;48954;59.950;11.014;2023-05-19T05:45:12;6.30;;;3.60;;
62863;SDS011;48954;59.950;11.014;2023-05-19T05:47:38;7.10;;;3.40;;
62863;SDS011;48954;59.950;11.014;2023-05-19T05:50:08;7.10;;;3.10;;
62863;SDS011;48954;59.950;11.014;2023-05-19T05:52:35;5.40;;;3.50;;
62863;SDS011;48954;59.950;11.014;2023-05-19T05:55:03;6.60;;;3.50;;
62863;SDS011;48954;59.950;11.014;2023-05-19T05:57:30;5.90;;;3.40;;
62863;SDS011;48954;59.950;11.014;2023-05-19T05:59:59;6.60;;;4.00;;
62863;SDS011;48954;59.950;11.014;2023-05-19T06:02:26;4.80;;;2.10;;
62863;SDS011;48954;59.950;11.014;2023-05-19T06:05:03;4.70;;;3.10;;
62863;SDS011;48954;59.950;11.014;2023-05-19T06:07:30;4.00;;;2.40;;
62863;SDS011;48954;59.950;11.014;2023-05-19T06:09:56;5.30;;;3.10;;
62863;SDS011;48954;59.950;11.014;2023-05-19T06:12:24;6.10;;;3.00;;
62863;SDS011;48954;59.950;11.014;2023-05-19T06:14:51;6.90;;;3.60;;
62863;SDS011;48954;59.950;11.014;2023-05-19T06:17:17;7.10;;;3.50;;
62863;SDS011;48954;59.950;11.014;2023-05-19T06:19:44;9.80;;;3.90;;
62863;SDS011;48954;59.950;11.014;2023-05-19T06:22:11;6.40;;;3.50;;
62863;SDS011;48954;59.950;11.014;2023-05-19T06:24:37;9.00;;;3.70;;
62863;SDS011;48954;59.950;11.014;2023-05-19T06:27:09;8.60;;;5.00;;
62863;SDS011;48954;59.950;11.014;2023-05-19T06:29:35;9.70;;;4.90;;
62863;SDS011;48954;59.950;11.014;2023-05-19T06:32:02;8.20;;;4.40;;
62863;SDS011;48954;59.950;11.014;2023-05-19T06:34:30;11.90;;;5.00;;
62863;SDS011;48954;59.950;11.014;2023-05-19T06:37:02;11.50;;;5.50;;
62863;SDS011;48954;59.950;11.014;2023-05-19T06:39:29;10.80;;;5.30;;
62863;SDS011;48954;59.950;11.014;2023-05-19T06:41:58;11.00;;;4.70;;
62863;SDS011;48954;59.950;11.014;2023-05-19T06:44:25;10.50;;;5.60;;
62863;SDS011;48954;59.950;11.014;2023-05-19T06:46:53;12.60;;;6.20;;
62863;SDS011;48954;59.950;11.014;2023-05-19T06:49:20;8.30;;;4.40;;
62863;SDS011;48954;59.950;11.014;2023-05-19T06:51:47;12.10;;;6.10;;
62863;SDS011;48954;59.950;11.014;2023-05-19T06:54:14;10.70;;;5.80;;
62863;SDS011;48954;59.950;11.014;2023-05-19T06:56:41;11.00;;;6.20;;
62863;SDS011;48954;59.950;11.014;2023-05-19T06:59:07;15.50;;;6.40;;
62863;SDS011;48954;59.950;11.014;2023-05-19T07:01:34;17.00;;;6.90;;
62863;SDS011;48954;59.950;11.014;2023-05-19T07:04:00;11.40;;;6.60;;
62863;SDS011;48954;59.950;11.014;2023-05-19T07:06:27;14.60;;;7.50;;
62863;SDS011;48954;59.950;11.014;2023-05-19T07:08:56;16.50;;;6.90;;
62863;SDS011;48954;59.950;11.014;2023-05-19T07:11:23;16.40;;;7.30;;
62863;SDS011;48954;59.950;11.014;2023-05-19T07:13:54;11.30;;;6.40;;
62863;SDS011;48954;59.950;11.014;2023-05-19T07:16:26;15.40;;;7.00;;
62863;SDS011;48954;59.950;11.014;2023-05-19T07:18:55;12.70;;;6.40;;
62863;SDS011;48954;59.950;11.014;2023-05-19T07:21:24;15.40;;;6.50;;
62863;SDS011;48954;59.950;11.014;2023-05-19T07:23:51;16.60;;;7.70;;
62863;SDS011;48954;59.950;11.014;2023-05-19T07:26:17;14.80;;;6.60;;
62863;SDS011;48954;59.950;11.014;2023-05-19T07:28:44;16.50;;;7.00;;
62863;SDS011;48954;59.950;11.014;2023-05-19T07:31:10;16.00;;;7.00;;
62863;SDS011;48954;59.950;11.014;2023-05-19T07:33:37;16.10;;;6.60;;
62863;SDS011;48954;59.950;11.014;2023-05-19T07:36:03;13.40;;;5.90;;
62863;SDS011;48954;59.950;11.014;2023-05-19T07:38:31;15.80;;;6.80;;
62863;SDS011;48954;59.950;11.014;2023-05-19T07:40:57;18.60;;;7.00;;
62863;SDS011;48954;59.950;11.014;2023-05-19T07:43:30;13.70;;;6.50;;
62863;SDS011;48954;59.950;11.014;2023-05-19T07:45:56;15.20;;;6.50;;
62863;SDS011;48954;59.950;11.014;2023-05-19T07:48:23;14.00;;;6.60;;
62863;SDS011;48954;59.950;11.014;2023-05-19T07:50:49;15.90;;;7.00;;
62863;SDS011;48954;59.950;11.014;2023-05-19T07:53:17;12.30;;;7.00;;
62863;SDS011;48954;59.950;11.014;2023-05-19T07:55:45;11.90;;;6.00;;
62863;SDS011;48954;59.950;11.014;2023-05-19T07:58:12;14.60;;;5.90;;
62863;SDS011;48954;59.950;11.014;2023-05-19T08:00:38;11.80;;;5.90;;
62863;SDS011;48954;59.950;11.014;2023-05-19T08:03:05;12.30;;;5.60;;
62863;SDS011;48954;59.950;11.014;2023-05-19T08:05:33;13.20;;;5.70;;
62863;SDS011;48954;59.950;11.014;2023-05-19T08:08:00;10.50;;;5.90;;
62863;SDS011;48954;59.950;11.014;2023-05-19T08:10:26;12.60;;;6.20;;
62863;SDS011;48954;59.950;11.014;2023-05-19T08:12:53;12.10;;;5.80;;
62863;SDS011;48954;59.950;11.014;2023-05-19T08:15:20;13.10;;;6.10;;
62863;SDS011;48954;59.950;11.014;2023-05-19T08:17:46;10.60;;;6.80;;
62863;SDS011;48954;59.950;11.014;2023-05-19T08:20:13;11.20;;;6.10;;
62863;SDS011;48954;59.950;11.014;2023-05-19T08:22:39;10.90;;;6.10;;
62863;SDS011;48954;59.950;11.014;2023-05-19T08:25:06;13.80;;;5.70;;
62863;SDS011;48954;59.950;11.014;2023-05-19T08:27:32;9.60;;;5.10;;
62863;SDS011;48954;59.950;11.014;2023-05-19T08:29:59;12.10;;;6.50;;
62863;SDS011;48954;59.950;11.014;2023-05-19T08:32:25;10.60;;;6.30;;
62863;SDS011;48954;59.950;11.014;2023-05-19T08:34:52;11.50;;;6.50;;
62863;SDS011;48954;59.950;11.014;2023-05-19T08:37:18;14.20;;;6.70;;
62863;SDS011;48954;59.950;11.014;2023-05-19T08:39:45;12.80;;;6.20;;
62863;SDS011;48954;59.950;11.014;2023-05-19T08:42:11;15.90;;;6.30;;
62863;SDS011;48954;59.950;11.014;2023-05-19T08:44:38;9.50;;;5.90;;
62863;SDS011;48954;59.950;11.014;2023-05-19T08:47:04;13.30;;;6.10;;
62863;SDS011;48954;59.950;11.014;2023-05-19T08:49:31;10.70;;;5.30;;
62863;SDS011;48954;59.950;11.014;2023-05-19T08:52:14;10.70;;;5.30;;
62863;SDS011;48954;59.950;11.014;2023-05-19T08:55:09;11.80;;;5.70;;
62863;SDS011;48954;59.950;11.014;2023-05-19T08:57:38;10.10;;;5.20;;
62863;SDS011;48954;59.950;11.014;2023-05-19T09:00:05;13.20;;;6.30;;
62863;SDS011;48954;59.950;11.014;2023-05-19T09:02:33;11.40;;;5.50;;
62863;SDS011;48954;59.950;11.014;2023-05-19T09:05:01;10.00;;;5.30;;
62863;SDS011;48954;59.950;11.014;2023-05-19T09:07:32;8.10;;;5.40;;
62863;SDS011;48954;59.950;11.014;2023-05-19T09:10:01;8.50;;;5.20;;
62863;SDS011;48954;59.950;11.014;2023-05-19T09:12:27;12.50;;;5.30;;
62863;SDS011;48954;59.950;11.014;2023-05-19T09:14:54;10.20;;;4.90;;
62863;SDS011;48954;59.950;11.014;2023-05-19T09:17:21;11.40;;;5.20;;
62863;SDS011;48954;59.950;11.014;2023-05-19T09:19:48;12.50;;;6.00;;
62863;SDS011;48954;59.950;11.014;2023-05-19T09:22:15;11.00;;;5.80;;
62863;SDS011;48954;59.950;11.014;2023-05-19T09:24:42;8.70;;;5.10;;
62863;SDS011;48954;59.950;11.014;2023-05-19T09:27:08;11.90;;;5.70;;
62863;SDS011;48954;59.950;11.014;2023-05-19T09:29:39;11.10;;;5.70;;
62863;SDS011;48954;59.950;11.014;2023-05-19T09:32:06;9.40;;;5.50;;
62863;SDS011;48954;59.950;11.014;2023-05-19T09:34:32;10.00;;;5.50;;
62863;SDS011;48954;59.950;11.014;2023-05-19T09:37:00;8.80;;;4.80;;
62863;SDS011;48954;59.950;11.014;2023-05-19T09:39:26;11.00;;;5.10;;
62863;SDS011;48954;59.950;11.014;2023-05-19T09:41:54;9.70;;;5.00;;
62863;SDS011;48954;59.950;11.014;2023-05-19T09:44:23;8.70;;;4.70;;
62863;SDS011;48954;59.950;11.014;2023-05-19T09:46:56;8.20;;;4.80;;
62863;SDS011;48954;59.950;11.014;2023-05-19T09:49:24;7.70;;;4.20;;
62863;SDS011;48954;59.950;11.014;2023-05-19T09:52:01;6.10;;;3.70;;
62863;SDS011;48954;59.950;11.014;2023-05-19T09:54:32;9.00;;;5.10;;
62863;SDS011;48954;59.950;11.014;2023-05-19T09:57:07;8.30;;;4.50;;
62863;SDS011;48954;59.950;11.014;2023-05-19T09:59:34;7.10;;;4.50;;
62863;SDS011;48954;59.950;11.014;2023-05-19T10:02:01;10.80;;;4.60;;
62863;SDS011;48954;59.950;11.014;2023-05-19T10:04:27;8.50;;;5.00;;
62863;SDS011;48954;59.950;11.014;2023-05-19T10:06:56;9.70;;;5.10;;
62863;SDS011;48954;59.950;11.014;2023-05-19T10:09:29;5.90;;;4.40;;
62863;SDS011;48954;59.950;11.014;2023-05-19T10:11:57;9.30;;;4.80;;
62863;SDS011;48954;59.950;11.014;2023-05-19T10:14:24;8.80;;;5.10;;
62863;SDS011;48954;59.950;11.014;2023-05-19T10:16:53;12.20;;;5.10;;
62863;SDS011;48954;59.950;11.014;2023-05-19T10:19:22;8.70;;;4.90;;
62863;SDS011;48954;59.950;11.014;2023-05-19T10:21:50;7.20;;;4.00;;
62863;SDS011;48954;59.950;11.014;2023-05-19T10:24:17;8.60;;;4.80;;
62863;SDS011;48954;59.950;11.014;2023-05-19T10:26:45;7.10;;;4.90;;
62863;SDS011;48954;59.950;11.014;2023-05-19T10:29:17;6.60;;;4.50;;
62863;SDS011;48954;59.950;11.014;2023-05-19T10:31:49;7.10;;;4.60;;
62863;SDS011;48954;59.950;11.014;2023-05-19T10:36:48;6.90;;;4.60;;
62863;SDS011;48954;59.950;11.014;2023-05-19T10:39:21;9.60;;;5.00;;
62863;SDS011;48954;59.950;11.014;2023-05-19T10:47:32;7.10;;;4.10;;
62863;SDS011;48954;59.950;11.014;2023-05-19T10:49:59;7.10;;;4.50;;
62863;SDS011;48954;59.950;11.014;2023-05-19T10:52:26;8.60;;;5.50;;
62863;SDS011;48954;59.950;11.014;2023-05-19T10:54:55;9.10;;;5.10;;
62863;SDS011;48954;59.950;11.014;2023-05-19T10:57:25;8.30;;;4.20;;
62863;SDS011;48954;59.950;11.014;2023-05-19T10:59:52;7.40;;;4.80;;
62863;SDS011;48954;59.950;11.014;2023-05-19T11:02:52;10.50;;;5.20;;
62863;SDS011;48954;59.950;11.014;2023-05-19T11:05:12;9.10;;;4.80;;
62863;SDS011;48954;59.950;11.014;2023-05-19T11:07:40;8.20;;;4.80;;
62863;SDS011;48954;59.950;11.014;2023-05-19T11:10:08;6.10;;;4.20;;
62863;SDS011;48954;59.950;11.014;2023-05-19T11:12:44;6.80;;;4.00;;
62863;SDS011;48954;59.950;11.014;2023-05-19T11:15:14;7.00;;;3.90;;
62863;SDS011;48954;59.950;11.014;2023-05-19T11:17:46;6.70;;;4.50;;
62863;SDS011;48954;59.950;11.014;2023-05-19T11:20:35;6.90;;;4.50;;
62863;SDS011;48954;59.950;11.014;2023-05-19T11:28:27;5.60;;;3.80;;
62863;SDS011;48954;59.950;11.014;2023-05-19T11:30:55;5.60;;;4.00;;
62863;SDS011;48954;59.950;11.014;2023-05-19T11:33:23;8.60;;;4.20;;
62863;SDS011;48954;59.950;11.014;2023-05-19T11:35:51;11.60;;;4.40;;
62863;SDS011;48954;59.950;11.014;2023-05-19T11:38:19;7.60;;;4.50;;
62863;SDS011;48954;59.950;11.014;2023-05-19T11:40:47;7.30;;;4.60;;
62863;SDS011;48954;59.950;11.014;2023-05-19T11:43:14;8.00;;;4.30;;
62863;SDS011;48954;59.950;11.014;2023-05-19T11:45:40;6.90;;;4.20;;
62863;SDS011;48954;59.950;11.014;2023-05-19T11:48:10;7.00;;;4.00;;
62863;SDS011;48954;59.950;11.014;2023-05-19T11:50:39;8.00;;;4.20;;
62863;SDS011;48954;59.950;11.014;2023-05-19T11:53:06;8.90;;;5.00;;
62863;SDS011;48954;59.950;11.014;2023-05-19T11:55:33;9.60;;;5.40;;
62863;SDS011;48954;59.950;11.014;2023-05-19T11:58:00;8.00;;;4.60;;
62863;SDS011;48954;59.950;11.014;2023-05-19T12:00:28;6.00;;;4.20;;
62863;SDS011;48954;59.950;11.014;2023-05-19T12:02:56;7.20;;;4.50;;
62863;SDS011;48954;59.950;11.014;2023-05-19T12:05:23;8.90;;;4.40;;
62863;SDS011;48954;59.950;11.014;2023-05-19T12:07:51;7.90;;;4.60;;
62863;SDS011;48954;59.950;11.014;2023-05-19T12:10:27;8.20;;;4.60;;
62863;SDS011;48954;59.950;11.014;2023-05-19T12:12:56;7.50;;;4.60;;
62863;SDS011;48954;59.950;11.014;2023-05-19T12:15:23;8.60;;;4.60;;
62863;SDS011;48954;59.950;11.014;2023-05-19T12:17:55;8.90;;;4.60;;
62863;SDS011;48954;59.950;11.014;2023-05-19T12:20:24;7.50;;;5.00;;
62863;SDS011;48954;59.950;11.014;2023-05-19T12:22:56;6.70;;;4.10;;
62863;SDS011;48954;59.950;11.014;2023-05-19T12:25:23;7.00;;;4.30;;
62863;SDS011;48954;59.950;11.014;2023-05-19T12:27:50;9.20;;;4.30;;
62863;SDS011;48954;59.950;11.014;2023-05-19T12:30:16;8.00;;;4.70;;
62863;SDS011;48954;59.950;11.014;2023-05-19T12:32:43;8.00;;;4.20;;
62863;SDS011;48954;59.950;11.014;2023-05-19T12:35:11;8.40;;;4.00;;
62863;SDS011;48954;59.950;11.014;2023-05-19T12:37:41;5.80;;;4.40;;
62863;SDS011;48954;59.950;11.014;2023-05-19T12:40:07;6.00;;;3.90;;
62863;SDS011;48954;59.950;11.014;2023-05-19T12:42:37;6.50;;;4.20;;
62863;SDS011;48954;59.950;11.014;2023-05-19T12:45:03;9.30;;;4.90;;
62863;SDS011;48954;59.950;11.014;2023-05-19T12:47:31;6.20;;;4.00;;
62863;SDS011;48954;59.950;11.014;2023-05-19T12:52:25;7.80;;;4.10;;
62863;SDS011;48954;59.950;11.014;2023-05-19T12:54:59;7.30;;;4.20;;
62863;SDS011;48954;59.950;11.014;2023-05-19T12:57:27;8.20;;;4.20;;
62863;SDS011;48954;59.950;11.014;2023-05-19T12:59:58;8.60;;;4.10;;
62863;SDS011;48954;59.950;11.014;2023-05-19T13:02:33;8.80;;;4.00;;
62863;SDS011;48954;59.950;11.014;2023-05-19T13:05:03;7.40;;;4.50;;
62863;SDS011;48954;59.950;11.014;2023-05-19T13:07:30;8.10;;;4.50;;
62863;SDS011;48954;59.950;11.014;2023-05-19T13:09:57;8.80;;;4.00;;
62863;SDS011;48954;59.950;11.014;2023-05-19T13:12:23;8.70;;;4.90;;
62863;SDS011;48954;59.950;11.014;2023-05-19T13:14:50;8.60;;;4.50;;
62863;SDS011;48954;59.950;11.014;2023-05-19T13:17:17;7.50;;;4.20;;
62863;SDS011;48954;59.950;11.014;2023-05-19T13:19:44;7.40;;;3.80;;
62863;SDS011;48954;59.950;11.014;2023-05-19T13:22:10;7.10;;;4.40;;
62863;SDS011;48954;59.950;11.014;2023-05-19T13:24:37;7.40;;;4.10;;
62863;SDS011;48954;59.950;11.014;2023-05-19T13:27:03;9.00;;;4.90;;
62863;SDS011;48954;59.950;11.014;2023-05-19T13:29:30;7.80;;;3.80;;
62863;SDS011;48954;59.950;11.014;2023-05-19T13:31:56;8.60;;;5.00;;
62863;SDS011;48954;59.950;11.014;2023-05-19T13:34:23;8.30;;;4.30;;
62863;SDS011;48954;59.950;11.014;2023-05-19T13:36:49;7.20;;;3.90;;
62863;SDS011;48954;59.950;11.014;2023-05-19T13:39:16;6.70;;;4.10;;
62863;SDS011;48954;59.950;11.014;2023-05-19T13:41:42;7.80;;;4.30;;
62863;SDS011;48954;59.950;11.014;2023-05-19T13:44:09;8.90;;;4.10;;
62863;SDS011;48954;59.950;11.014;2023-05-19T13:46:35;6.20;;;4.20;;
62863;SDS011;48954;59.950;11.014;2023-05-19T13:49:01;9.90;;;4.50;;
62863;SDS011;48954;59.950;11.014;2023-05-19T13:51:28;6.70;;;4.20;;
62863;SDS011;48954;59.950;11.014;2023-05-19T13:53:54;9.70;;;5.00;;
62863;SDS011;48954;59.950;11.014;2023-05-19T13:56:21;8.60;;;4.30;;
62863;SDS011;48954;59.950;11.014;2023-05-19T13:58:47;7.50;;;4.40;;
62863;SDS011;48954;59.950;11.014;2023-05-19T14:01:14;9.00;;;5.30;;
62863;SDS011;48954;59.950;11.014;2023-05-19T14:03:41;11.60;;;6.10;;
62863;SDS011;48954;59.950;11.014;2023-05-19T14:06:10;8.90;;;4.10;;
62863;SDS011;48954;59.950;11.014;2023-05-19T14:08:36;7.90;;;4.10;;
62863;SDS011;48954;59.950;11.014;2023-05-19T14:11:03;6.10;;;3.80;;
62863;SDS011;48954;59.950;11.014;2023-05-19T14:13:32;7.20;;;4.30;;
62863;SDS011;48954;59.950;11.014;2023-05-19T14:15:58;10.00;;;5.00;;
62863;SDS011;48954;59.950;11.014;2023-05-19T14:18:26;6.50;;;4.10;;
62863;SDS011;48954;59.950;11.014;2023-05-19T14:20:53;7.70;;;3.80;;
62863;SDS011;48954;59.950;11.014;2023-05-19T14:23:19;7.70;;;3.60;;
62863;SDS011;48954;59.950;11.014;2023-05-19T14:25:46;8.50;;;3.90;;
62863;SDS011;48954;59.950;11.014;2023-05-19T14:28:12;5.80;;;3.90;;
62863;SDS011;48954;59.950;11.014;2023-05-19T14:30:39;9.40;;;5.20;;
62863;SDS011;48954;59.950;11.014;2023-05-19T14:33:06;8.10;;;4.60;;
62863;SDS011;48954;59.950;11.014;2023-05-19T14:35:33;6.50;;;3.80;;
62863;SDS011;48954;59.950;11.014;2023-05-19T14:38:00;8.10;;;3.90;;
62863;SDS011;48954;59.950;11.014;2023-05-19T14:40:26;10.20;;;4.50;;
62863;SDS011;48954;59.950;11.014;2023-05-19T14:42:53;8.80;;;4.40;;
62863;SDS011;48954;59.950;11.014;2023-05-19T14:45:21;9.20;;;4.50;;
62863;SDS011;48954;59.950;11.014;2023-05-19T14:47:48;9.60;;;4.60;;
62863;SDS011;48954;59.950;11.014;2023-05-19T14:50:14;8.90;;;5.20;;
62863;SDS011;48954;59.950;11.014;2023-05-19T14:52:44;10.70;;;7.00;;
62863;SDS011;48954;59.950;11.014;2023-05-19T14:55:11;8.10;;;4.00;;
62863;SDS011;48954;59.950;11.014;2023-05-19T14:57:37;7.10;;;4.00;;
62863;SDS011;48954;59.950;11.014;2023-05-19T15:00:04;6.00;;;4.10;;
62863;SDS011;48954;59.950;11.014;2023-05-19T15:02:31;8.80;;;5.50;;
62863;SDS011;48954;59.950;11.014;2023-05-19T15:05:01;10.50;;;5.90;;
62863;SDS011;48954;59.950;11.014;2023-05-19T15:07:27;8.20;;;3.80;;
62863;SDS011;48954;59.950;11.014;2023-05-19T15:09:57;8.70;;;4.20;;
62863;SDS011;48954;59.950;11.014;2023-05-19T15:12:23;10.80;;;5.60;;
62863;SDS011;48954;59.950;11.014;2023-05-19T15:14:50;7.60;;;3.90;;
62863;SDS011;48954;59.950;11.014;2023-05-19T15:17:25;7.00;;;3.90;;